createdAt,value
2022-12-01T00:03:16.880Z,4.62
2022-12-01T00:08:25.859Z,4.62
2022-12-01T00:13:34.729Z,4.56
2022-12-01T00:18:43.766Z,4.56
2022-12-01T00:23:52.755Z,4.56
2022-12-01T00:29:01.607Z,4.56
2022-12-01T00:34:11.569Z,4.5
2022-12-01T00:39:19.663Z,4.5
2022-12-01T00:44:28.675Z,4.5
2022-12-01T00:49:37.561Z,4.44
2022-12-01T01:09:40.849Z,4.44
2022-12-01T01:14:49.971Z,4.44
2022-12-01T01:19:59.030Z,4.37
2022-12-01T01:25:08.414Z,4.44
2022-12-01T01:30:17.112Z,4.44
2022-12-01T01:35:26.057Z,4.44
2022-12-01T01:40:35.167Z,4.44
2022-12-01T01:45:44.250Z,4.44
2022-12-01T01:50:53.237Z,4.44
2022-12-01T01:56:02.301Z,4.37
2022-12-01T02:01:11.327Z,4.37
2022-12-01T02:06:20.320Z,4.37
2022-12-01T02:11:29.377Z,4.31
2022-12-01T02:16:38.455Z,4.31
2022-12-01T02:21:47.349Z,4.25
2022-12-01T02:32:05.732Z,4.25
2022-12-01T02:37:14.832Z,4.25
2022-12-01T02:42:23.658Z,4.19
2022-12-01T02:47:32.688Z,4.19
2022-12-01T02:52:41.728Z,4.12
2022-12-01T02:57:50.707Z,4.19
2022-12-01T03:02:59.752Z,4.12
2022-12-01T03:08:08.759Z,4.12
2022-12-01T03:13:17.578Z,4.12
2022-12-01T03:28:23.014Z,3.94
2022-12-01T03:33:31.775Z,3.94
2022-12-01T03:38:40.692Z,3.87
2022-12-01T03:43:49.918Z,3.75
2022-12-01T03:48:58.786Z,3.75
2022-12-01T03:54:07.874Z,3.69
2022-12-01T04:04:15.025Z,3.62
2022-12-01T04:09:24.040Z,3.56
2022-12-01T04:14:33.120Z,3.56
2022-12-01T04:19:42.096Z,3.56
2022-12-01T04:24:51.060Z,3.56
2022-12-01T04:30:00.010Z,3.5
2022-12-01T04:35:08.940Z,3.44
2022-12-01T04:40:17.747Z,3.5
2022-12-01T04:45:26.761Z,3.44
2022-12-01T04:50:35.806Z,3.37
2022-12-01T04:55:44.734Z,3.37
2022-12-01T05:00:54.031Z,3.31
2022-12-01T05:06:02.968Z,3.31
2022-12-01T05:11:11.874Z,3.31
2022-12-01T05:16:20.839Z,3.25
2022-12-01T05:21:29.758Z,3.25
2022-12-01T05:26:38.728Z,3.19
2022-12-01T05:31:47.792Z,3.25
2022-12-01T05:36:56.636Z,3.19
2022-12-01T05:42:05.647Z,3.19
2022-12-01T05:47:14.593Z,3.19
2022-12-01T05:52:23.734Z,3.12
2022-12-01T05:57:32.760Z,3.12
2022-12-01T06:02:41.679Z,3.06
2022-12-01T06:07:50.841Z,3
2022-12-01T06:12:59.853Z,3
2022-12-01T06:18:08.779Z,3.06
2022-12-01T06:23:17.719Z,3
2022-12-01T06:28:26.701Z,3
2022-12-01T06:38:44.572Z,3
2022-12-01T06:43:53.551Z,3
2022-12-01T06:49:02.518Z,3.06
2022-12-01T06:54:11.532Z,3.06
2022-12-01T06:59:20.680Z,3.12
2022-12-01T07:04:29.658Z,3.12
2022-12-01T07:09:38.747Z,3.12
2022-12-01T07:14:47.621Z,3.12
2022-12-01T07:19:56.588Z,3.19
2022-12-01T07:25:05.650Z,3.19
2022-12-01T07:30:14.509Z,3.19
2022-12-01T07:35:23.555Z,3.25
2022-12-01T07:40:32.604Z,3.25
2022-12-01T07:45:41.525Z,3.31
2022-12-01T07:50:50.367Z,3.31
2022-12-01T07:56:02.062Z,3.37
2022-12-01T08:01:08.565Z,3.44
2022-12-01T08:06:17.483Z,3.44
2022-12-01T08:11:26.421Z,3.44
2022-12-01T08:16:35.432Z,3.5
2022-12-01T08:26:42.511Z,3.62
2022-12-01T08:31:51.628Z,3.69
2022-12-01T08:41:58.780Z,3.75
2022-12-01T08:47:07.683Z,3.62
2022-12-01T08:52:16.605Z,3.62
2022-12-01T08:57:25.561Z,3.62
2022-12-01T09:02:34.762Z,3.69
2022-12-01T09:07:43.664Z,3.75
2022-12-01T09:12:52.575Z,3.75
2022-12-01T09:18:01.471Z,3.75
2022-12-01T09:28:19.489Z,3.94
2022-12-01T09:33:28.493Z,3.87
2022-12-01T09:38:37.460Z,3.94
2022-12-01T09:43:46.460Z,3.94
2022-12-01T09:48:55.504Z,4
2022-12-01T09:54:04.552Z,4.19
2022-12-01T09:59:13.756Z,4.37
2022-12-01T10:19:17.567Z,4.5
2022-12-01T10:24:26.742Z,4.62
2022-12-01T10:29:35.883Z,4.69
2022-12-01T10:34:44.902Z,4.75
2022-12-01T10:49:50.817Z,4.87
2022-12-01T10:54:59.542Z,5
2022-12-01T11:00:08.461Z,4.94
2022-12-01T11:05:17.770Z,5.06
2022-12-01T11:10:26.732Z,5.06
2022-12-01T11:15:35.693Z,5.12
2022-12-01T11:20:44.754Z,5.12
2022-12-01T11:25:53.649Z,5.12
2022-12-01T11:31:02.784Z,5.12
2022-12-01T11:36:15.990Z,5.12
2022-12-01T11:41:20.576Z,5.19
2022-12-01T11:46:29.543Z,5.19
2022-12-01T11:51:38.627Z,5.25
2022-12-01T11:56:50.046Z,5.19
2022-12-01T12:01:56.583Z,5.19
2022-12-01T12:07:05.538Z,5.12
2022-12-01T12:12:16.512Z,5.06
2022-12-01T12:17:25.553Z,5
2022-12-01T12:22:34.679Z,5.06
2022-12-01T12:27:43.800Z,5.06
2022-12-01T12:32:52.894Z,5.06
2022-12-01T12:38:01.843Z,5
2022-12-01T12:48:19.764Z,5
2022-12-01T12:53:28.661Z,5
2022-12-01T12:58:37.642Z,5.06
2022-12-01T13:03:46.748Z,5.12
2022-12-01T13:08:55.682Z,5.19
2022-12-01T13:14:04.590Z,5.25
2022-12-01T13:19:13.645Z,5.31
2022-12-01T13:24:23.447Z,5.37
2022-12-01T13:29:31.536Z,5.31
2022-12-01T13:34:40.408Z,5.19
2022-12-01T13:44:57.915Z,4.56
2022-12-01T13:50:06.830Z,4.31
2022-12-01T13:55:15.733Z,4.37
2022-12-01T14:00:24.821Z,4.5
2022-12-01T14:05:34.035Z,4.62
2022-12-01T14:10:43.046Z,4.62
2022-12-01T14:21:00.735Z,4.44
2022-12-01T14:26:09.687Z,4.44
2022-12-01T14:31:18.668Z,4.31
2022-12-01T14:36:30.365Z,4.31
2022-12-01T14:41:39.292Z,4.19
2022-12-01T14:46:48.250Z,4.12
2022-12-01T14:51:57.339Z,4
2022-12-01T14:57:09.011Z,4
2022-12-01T15:02:15.369Z,3.94
2022-12-01T15:07:24.402Z,3.87
2022-12-01T15:12:33.146Z,3.87
2022-12-01T15:27:56.946Z,3.94
2022-12-01T15:33:06.007Z,4
2022-12-01T15:38:14.967Z,3.94
2022-12-01T15:43:23.845Z,3.94
2022-12-01T15:48:32.750Z,3.87
2022-12-01T15:53:41.925Z,3.87
2022-12-01T15:58:51.072Z,3.94
2022-12-01T16:04:00.093Z,3.94
2022-12-01T16:09:09.114Z,4
2022-12-01T16:14:18.054Z,3.94
2022-12-01T16:19:26.884Z,3.87
2022-12-01T16:24:35.896Z,3.75
2022-12-01T16:29:44.951Z,3.75
2022-12-01T16:34:53.997Z,3.62
2022-12-01T16:40:03.003Z,3.56
2022-12-01T16:45:12.070Z,3.5
2022-12-01T16:50:21.141Z,3.44
2022-12-01T16:55:30.011Z,3.44
2022-12-01T17:10:35.574Z,3.5
2022-12-01T17:15:44.797Z,3.62
2022-12-01T17:20:53.663Z,3.69
2022-12-01T17:26:03.002Z,3.69
2022-12-01T17:41:08.243Z,3.81
2022-12-01T17:46:17.511Z,3.81
2022-12-01T17:51:35.116Z,3.81
2022-12-01T17:56:44.299Z,3.87
2022-12-01T18:01:53.403Z,3.94
2022-12-01T18:07:02.272Z,4
2022-12-01T18:12:11.270Z,3.94
2022-12-01T18:17:20.299Z,4
2022-12-01T18:22:29.195Z,4
2022-12-01T18:27:38.134Z,3.94
2022-12-01T18:37:56.142Z,3.94
2022-12-01T18:43:07.985Z,3.94
2022-12-01T18:48:17.018Z,3.94
2022-12-01T18:53:26.043Z,3.94
2022-12-01T18:58:34.972Z,3.94
2022-12-01T19:03:43.962Z,3.94
2022-12-01T19:08:52.962Z,3.94
2022-12-01T19:14:01.971Z,3.87
2022-12-01T19:19:11.052Z,3.87
2022-12-01T19:24:20.073Z,3.81
2022-12-01T19:29:29.081Z,3.81
2022-12-01T19:34:38.178Z,3.87
2022-12-01T19:39:47.098Z,3.87
2022-12-01T19:44:56.059Z,3.87
2022-12-01T19:50:05.179Z,3.87
2022-12-01T20:00:15.747Z,3.75
2022-12-01T20:05:21.289Z,3.75
2022-12-01T20:10:30.174Z,3.75
2022-12-01T20:15:39.109Z,3.75
2022-12-01T20:20:47.883Z,3.75
2022-12-01T20:25:56.862Z,3.75
2022-12-01T20:31:05.884Z,3.75
2022-12-01T20:36:14.743Z,3.69
2022-12-01T20:41:23.779Z,3.75
2022-12-01T20:46:32.688Z,3.69
2022-12-01T20:51:41.624Z,3.69
2022-12-01T20:56:50.795Z,3.62
2022-12-01T21:01:59.751Z,3.69
2022-12-01T21:07:08.601Z,3.62
2022-12-01T21:12:17.492Z,3.56
2022-12-01T21:17:26.389Z,3.56
2022-12-01T21:22:35.173Z,3.5
2022-12-01T21:27:44.158Z,3.5
2022-12-01T21:38:02.124Z,3.37
2022-12-01T21:43:11.341Z,3.31
2022-12-01T21:48:20.376Z,3.31
2022-12-01T21:53:29.363Z,3.31
2022-12-01T21:58:38.275Z,3.31
2022-12-01T22:03:47.230Z,3.31
2022-12-01T22:08:56.303Z,3.25
2022-12-01T22:19:14.257Z,3.19
2022-12-01T22:24:23.324Z,3.12
2022-12-01T22:29:32.237Z,3.12
2022-12-01T22:34:41.366Z,3.06
2022-12-01T22:39:50.191Z,3.06
2022-12-01T22:44:58.970Z,3
2022-12-01T22:50:07.927Z,2.94
2022-12-01T22:55:17.258Z,2.81
2022-12-01T23:00:26.185Z,2.69
2022-12-01T23:05:35.312Z,2.56
2022-12-01T23:10:44.200Z,2.5
2022-12-01T23:30:47.218Z,2.31
2022-12-01T23:35:56.144Z,2.25
2022-12-01T23:41:05.272Z,2.37
2022-12-01T23:46:14.305Z,2.44
2022-12-01T23:51:23.209Z,2.5
2022-12-01T23:56:32.147Z,2.62
